Terminal Aerodrome Forecast
Issued by NWS

Home | Current Version | Previous Version | Text Only | Print | Product List | Glossary On
Versions: 1 2 3 4 5 6 7 8 9 10 11 12 13 14 15 16 17 18 19 20 21
000
FTUS43 KMKX 290645 AAA
TAFUES
TAF AMD
KUES 290645Z 2907/3006 01011G17KT P6SM BKN012
     FM291500 03013KT P6SM SCT020
     FM291700 04013G21KT P6SM BKN035
     FM300000 03010KT P6SM SCT035 BKN045
     FM300300 04007KT P6SM BKN035=

USA.gov is the U.S. government's official web portal to all federal, state and local government web resources and services.